PWSweather.com
Personal Weather Stations
Station Observations
SANDHURSTWX
SandhurstGB

SandhurstGB

Lat: 51.3522, Lon: -0.7739

Elevation: 272.3

Station Type: Davis VP2

www.sandhurstweather.org.uk

High Low Average
Temperature 64.8°F18.2°C 54.2°F12.3°C 59.7°F15.4°C
Dew Point 62.0°F16.7°C 51.0°F10.6°C 57.3°F14.1°C
Winds 17.3 mph 27.8 kmh 2.3 mph 3.7 kmh 7.0 mph SW11.3 kmh SW
Wind Gusts 33.4 mph53.8 kmh 2.3 mph3.7 kmh 11.0 mph17.7 kmh
Humidity 97% 80% 92%
Pressure 29.76 in1007.8 mb 29.32 in992.9 mb -
Precipitation 0.16 in4.1 mm - -
Hour Temp Dew Point Humidity Winds Wind Gusts Pressure Precip Precip Rate Daily Precip Total
12:00 AM 58.6°F14.8°C 57.4°F14.1°C 96% 12.7 mph S20.4 kmh S 19.6 mph31.5 kmh 29.58 in1001.7 mb - 0.02 in0.5 mm 0.02 in0.5 mm
01:00 AM 58.2°F14.6°C 57.1°F13.9°C 96% 10.4 mph S16.7 kmh S 12.7 mph20.4 kmh 29.57 in1001.4 mb - 0.01 in0.3 mm 0.03 in0.8 mm
02:00 AM 58.0°F14.4°C 56.9°F13.8°C 96% 8.1 mph S13.0 kmh S 23.0 mph37.0 kmh 29.52 in999.7 mb - 0.01 in0.3 mm 0.04 in1.0 mm
03:00 AM 58.0°F14.4°C 56.9°F13.8°C 96% 10.4 mph S16.7 kmh S 15.0 mph24.1 kmh 29.46 in997.6 mb - 0.02 in0.5 mm 0.06 in1.5 mm
04:00 AM 58.9°F14.9°C 58.1°F14.5°C 97% 8.1 mph S13.0 kmh S 12.7 mph20.4 kmh 29.42 in996.3 mb - 0.00 in0.0 mm 0.06 in1.5 mm
05:00 AM 59.7°F15.4°C 58.9°F14.9°C 97% 8.1 mph S13.0 kmh S 6.9 mph11.1 kmh 29.39 in995.3 mb - 0.01 in0.3 mm 0.06 in1.5 mm
06:00 AM 59.8°F15.4°C 58.9°F14.9°C 97% 3.5 mph SSW5.6 kmh SSW 4.6 mph7.4 kmh 29.38 in994.9 mb - 0.01 in0.3 mm 0.07 in1.8 mm
07:00 AM 60.2°F15.7°C 59.3°F15.2°C 97% 3.5 mph SSW5.6 kmh SSW 5.8 mph9.3 kmh 29.36 in994.2 mb - 0.00 in0.0 mm 0.07 in1.8 mm
08:00 AM 60.8°F16.0°C 59.7°F15.4°C 96% 5.8 mph S9.3 kmh S 6.9 mph11.1 kmh 29.36 in994.2 mb - 0.01 in0.3 mm 0.08 in2.0 mm
09:00 AM 61.5°F16.4°C 60.3°F15.7°C 96% 4.6 mph SSW7.4 kmh SSW 8.1 mph13.0 kmh 29.37 in994.6 mb - 0.00 in0.0 mm 0.08 in2.0 mm
10:00 AM 61.6°F16.4°C 60.2°F15.7°C 95% 4.6 mph SSW7.4 kmh SSW 5.8 mph9.3 kmh 29.36 in994.2 mb - 0.00 in0.0 mm 0.08 in2.0 mm
11:00 AM 62.7°F17.1°C 60.6°F15.9°C 93% 4.6 mph SSW7.4 kmh SSW 5.8 mph9.3 kmh 29.36 in994.2 mb - 0.00 in0.0 mm 0.08 in2.0 mm
12:00 PM 64.8°F18.2°C 61.5°F16.4°C 89% 3.5 mph SSW5.6 kmh SSW 8.1 mph13.0 kmh 29.34 in993.6 mb - 0.04 in1.0 mm 0.12 in3.0 mm
01:00 PM 63.4°F17.4°C 62.0°F16.7°C 95% 4.6 mph SW7.4 kmh SW 8.1 mph13.0 kmh 29.32 in992.9 mb - 0.05 in1.3 mm 0.16 in4.1 mm
02:00 PM 63.8°F17.7°C 61.4°F16.3°C 92% 3.5 mph SW5.6 kmh SW 6.9 mph11.1 kmh 29.32 in992.9 mb - 0.00 in0.0 mm 0.16 in4.1 mm
03:00 PM 62.7°F17.1°C 59.8°F15.4°C 90% 4.6 mph WSW7.4 kmh WSW 12.7 mph20.4 kmh 29.35 in993.9 mb - 0.00 in0.0 mm 0.16 in4.1 mm
04:00 PM 61.2°F16.2°C 56.0°F13.3°C 83% 11.5 mph NW18.5 kmh NW 12.7 mph20.4 kmh 29.40 in995.6 mb - 0.00 in0.0 mm 0.16 in4.1 mm
05:00 PM 60.9°F16.1°C 54.7°F12.6°C 80% 10.4 mph NW16.7 kmh NW 16.1 mph25.9 kmh 29.45 in997.3 mb - 0.00 in0.0 mm 0.16 in4.1 mm
06:00 PM 59.1°F15.1°C 53.3°F11.8°C 81% 17.3 mph NW27.8 kmh NW 33.4 mph53.8 kmh 29.53 in1000.0 mb - 0.00 in0.0 mm 0.16 in4.1 mm
07:00 PM 57.0°F13.9°C 53.5°F11.9°C 88% 12.7 mph NW20.4 kmh NW 18.4 mph29.6 kmh 29.62 in1003.0 mb - 0.00 in0.0 mm 0.16 in4.1 mm
08:00 PM 56.2°F13.4°C 53.0°F11.7°C 89% 3.5 mph W5.6 kmh W 6.9 mph11.1 kmh 29.67 in1004.7 mb - 0.00 in0.0 mm 0.16 in4.1 mm
09:00 PM 56.2°F13.4°C 52.4°F11.3°C 87% 4.6 mph W7.4 kmh W 10.4 mph16.7 kmh 29.71 in1006.1 mb - 0.00 in0.0 mm 0.16 in4.1 mm
10:00 PM 55.7°F13.2°C 52.2°F11.2°C 88% 2.3 mph W3.7 kmh W 3.5 mph5.6 kmh 29.74 in1007.1 mb - 0.00 in0.0 mm 0.16 in4.1 mm
11:00 PM 54.2°F12.3°C 51.0°F10.6°C 89% 2.3 mph NW3.7 kmh NW 2.3 mph3.7 kmh 29.76 in1007.8 mb - 0.00 in0.0 mm 0.18 in4.6 mm